New Orleans NAS, Louisiana
Current Conditions -  °F | °C
As of 9:55 AM on Thursday 30 Oct 2014 (Local Time) from KNBG Reporting Station
Clear Clear  
Wind Chill: 69°   Ceiling: Unl
Heat Index: 69°   Visibility: 10mi
Dew Point: 44°   Wind: 15mph
Humidity: 40%   Direction: 50°NE
Pressure: 30.11"   Gusts: 21mph
Location:  29.83°N, 90.02°W
Report Text: KNBG 301455Z 05013G18KT 10SM CLR 21/07 A3011 RMK AO2 SLP195 T02060067 51013 $
Loading
Personal Weather Stations






























Interactive Weather Map New forecast layout! Learn more

10-Day Weather Forecast

Advertisements
Track Severe Weather on mobile